createdAt,value
2018-07-07T00:00:51.582Z,9.20
2018-07-07T00:03:18.521Z,8.95
2018-07-07T00:05:45.577Z,7.62
2018-07-07T00:08:12.620Z,8.85
2018-07-07T00:10:39.673Z,8.48
2018-07-07T00:13:08.154Z,8.52
2018-07-07T00:15:35.199Z,8.70
2018-07-07T00:18:02.254Z,7.25
2018-07-07T00:20:32.515Z,7.15
2018-07-07T00:22:59.519Z,7.25
2018-07-07T00:25:27.393Z,8.50
2018-07-07T00:27:54.437Z,8.10
2018-07-07T00:30:21.433Z,8.57
2018-07-07T00:32:48.383Z,9.30
2018-07-07T00:35:15.382Z,8.20
2018-07-07T00:37:42.426Z,9.10
2018-07-07T00:40:09.475Z,7.55
2018-07-07T00:42:36.529Z,7.90
2018-07-07T00:45:03.571Z,7.97
2018-07-07T00:47:30.570Z,7.75
2018-07-07T00:49:57.566Z,8.07
2018-07-07T00:52:24.616Z,11.60
2018-07-07T00:54:51.672Z,7.82
2018-07-07T00:57:18.712Z,7.65
2018-07-07T00:59:45.762Z,7.50
2018-07-07T01:02:12.749Z,7.18
2018-07-07T01:04:39.756Z,8.65
2018-07-07T01:07:06.811Z,9.48
2018-07-07T01:09:33.853Z,7.18
2018-07-07T01:12:00.903Z,7.30
2018-07-07T01:14:27.955Z,8.25
2018-07-07T01:16:54.897Z,7.53
2018-07-07T01:19:21.881Z,6.90
2018-07-07T01:21:49.102Z,7.15
2018-07-07T01:24:16.144Z,6.60
2018-07-07T01:26:43.193Z,7.25
2018-07-07T01:29:10.246Z,7.20
2018-07-07T01:31:37.189Z,10.25
2018-07-07T01:34:04.242Z,6.68
2018-07-07T01:36:31.285Z,7.70
2018-07-07T01:38:58.238Z,7.53
2018-07-07T01:41:25.280Z,9.52
2018-07-07T01:43:52.329Z,7.30
2018-07-07T01:46:19.383Z,7.32
2018-07-07T01:48:46.465Z,7.95
2018-07-07T01:51:14.192Z,7.15
2018-07-07T01:53:41.240Z,7.00
2018-07-07T01:56:08.307Z,7.90
2018-07-07T01:58:35.290Z,6.68
2018-07-07T02:01:02.291Z,6.93
2018-07-07T02:03:29.334Z,6.68
2018-07-07T02:05:56.384Z,6.90
2018-07-07T02:08:23.437Z,6.72
2018-07-07T02:10:50.477Z,7.10
2018-07-07T02:13:17.365Z,8.05
2018-07-07T02:15:44.370Z,6.07
2018-07-07T02:18:11.431Z,6.85
2018-07-07T02:20:38.469Z,6.43
2018-07-07T02:23:05.517Z,6.68
2018-07-07T02:25:32.668Z,7.60
2018-07-07T02:27:59.613Z,6.22
2018-07-07T02:30:27.895Z,6.03
2018-07-07T02:32:54.947Z,5.68
2018-07-07T02:35:23.834Z,5.57
2018-07-07T02:37:50.783Z,7.65
2018-07-07T02:40:17.724Z,5.90
2018-07-07T02:42:44.779Z,6.78
2018-07-07T02:45:11.822Z,6.25
2018-07-07T02:47:38.870Z,6.18
2018-07-07T02:50:05.926Z,5.53
2018-07-07T02:52:32.967Z,4.82
2018-07-07T02:55:00.025Z,4.82
2018-07-07T02:57:27.001Z,5.40
2018-07-07T02:59:54.011Z,5.53
2018-07-07T03:02:21.065Z,6.50
2018-07-07T03:04:48.110Z,5.10
2018-07-07T03:07:15.158Z,4.03
2018-07-07T03:09:43.230Z,3.75
2018-07-07T03:12:10.285Z,5.37
2018-07-07T03:14:37.328Z,3.83
2018-07-07T03:17:04.321Z,4.05
2018-07-07T03:19:31.323Z,4.28
2018-07-07T03:21:58.371Z,5.87
2018-07-07T03:24:26.134Z,4.10
2018-07-07T03:26:53.191Z,4.00
2018-07-07T03:29:20.234Z,3.22
2018-07-07T03:31:47.285Z,3.53
2018-07-07T03:34:14.338Z,4.00
2018-07-07T03:36:44.475Z,3.60
2018-07-07T03:39:11.540Z,4.80
2018-07-07T03:41:38.554Z,3.75
2018-07-07T03:44:05.597Z,3.95
2018-07-07T03:46:32.646Z,3.97
2018-07-07T03:48:59.639Z,5.37
2018-07-07T03:51:26.643Z,5.60
2018-07-07T03:53:53.696Z,3.83
2018-07-07T03:56:20.739Z,3.87
2018-07-07T03:58:47.794Z,3.95
2018-07-07T04:01:15.763Z,4.10
2018-07-07T04:03:42.806Z,4.40
2018-07-07T04:06:09.801Z,3.75
2018-07-07T04:08:37.927Z,4.53
2018-07-07T04:11:04.981Z,3.97
2018-07-07T04:13:32.025Z,4.03
2018-07-07T04:15:59.897Z,3.75
2018-07-07T04:18:27.502Z,3.83
2018-07-07T04:20:54.506Z,3.75
2018-07-07T04:23:21.550Z,3.55
2018-07-07T04:25:48.546Z,4.10
2018-07-07T04:28:15.545Z,6.15
2018-07-07T04:30:42.605Z,3.53
2018-07-07T04:33:09.647Z,4.87
2018-07-07T04:35:36.690Z,3.83
2018-07-07T04:38:03.739Z,4.22
2018-07-07T04:40:30.793Z,5.00
2018-07-07T04:42:57.836Z,3.60
2018-07-07T04:45:25.402Z,8.25
2018-07-07T04:47:52.445Z,5.43
2018-07-07T04:50:19.397Z,3.90
2018-07-07T04:52:46.446Z,9.45
2018-07-07T04:55:13.493Z,3.72
2018-07-07T04:57:40.544Z,3.47
2018-07-07T05:00:07.589Z,7.20
2018-07-07T05:02:34.642Z,4.43
2018-07-07T05:05:01.690Z,4.85
2018-07-07T05:07:29.345Z,5.03
2018-07-07T05:09:56.300Z,2.83
2018-07-07T05:12:23.852Z,3.30
2018-07-07T05:14:50.906Z,2.97
2018-07-07T05:17:18.005Z,3.35
2018-07-07T05:19:45.000Z,3.30
2018-07-07T05:22:12.054Z,5.43
2018-07-07T05:24:39.096Z,3.35
2018-07-07T05:27:06.144Z,3.22
2018-07-07T05:29:33.506Z,4.10
2018-07-07T05:32:00.598Z,2.70
2018-07-07T05:34:27.596Z,2.17
2018-07-07T05:36:55.006Z,2.30
2018-07-07T05:39:22.002Z,4.07
2018-07-07T05:41:49.053Z,12.55
2018-07-07T05:44:16.144Z,3.00
2018-07-07T05:46:43.147Z,2.53
2018-07-07T05:49:10.099Z,2.10
2018-07-07T05:51:37.360Z,5.20
2018-07-07T05:54:04.907Z,1.90
2018-07-07T05:56:31.956Z,1.95
2018-07-07T05:58:58.941Z,1.83
2018-07-07T06:01:25.952Z,2.55
2018-07-07T06:03:52.897Z,1.70
2018-07-07T06:06:19.892Z,1.70
2018-07-07T06:08:46.892Z,1.83
2018-07-07T06:11:13.941Z,1.58
2018-07-07T06:13:40.995Z,2.12
2018-07-07T06:16:08.039Z,5.15
2018-07-07T06:18:35.087Z,2.37
2018-07-07T06:21:02.143Z,4.03
2018-07-07T06:23:29.082Z,1.70
2018-07-07T06:25:56.136Z,2.75
2018-07-07T06:28:23.179Z,13.68
2018-07-07T06:30:50.227Z,7.07
2018-07-07T06:33:17.281Z,44.45
2018-07-07T06:35:44.435Z,21.40
2018-07-07T06:38:11.477Z,14.40
2018-07-07T06:40:38.524Z,11.70
2018-07-07T06:43:05.470Z,4.55
2018-07-07T06:45:32.520Z,2.10
2018-07-07T06:47:59.573Z,2.50
2018-07-07T06:50:26.617Z,2.72
2018-07-07T06:52:53.665Z,2.83
2018-07-07T06:55:20.722Z,3.15
2018-07-07T06:57:47.763Z,4.40
2018-07-07T07:00:14.814Z,3.37
2018-07-07T07:02:41.962Z,3.80
2018-07-07T07:05:09.113Z,2.60
2018-07-07T07:07:36.167Z,2.40
2018-07-07T07:10:03.210Z,8.57
2018-07-07T07:12:31.083Z,3.75
2018-07-07T07:14:58.134Z,4.82
2018-07-07T07:17:25.175Z,3.75
2018-07-07T07:19:53.479Z,4.45
2018-07-07T07:22:20.501Z,3.40
2018-07-07T07:24:47.498Z,3.45
2018-07-07T07:27:14.911Z,2.42
2018-07-07T07:29:41.955Z,8.45
2018-07-07T07:32:09.004Z,4.50
2018-07-07T07:34:36.102Z,6.32
2018-07-07T07:37:03.209Z,3.60
2018-07-07T07:39:30.252Z,4.53
2018-07-07T07:41:57.913Z,2.37
2018-07-07T07:44:24.968Z,4.30
2018-07-07T07:46:52.019Z,2.92
2018-07-07T07:49:19.168Z,10.00
2018-07-07T07:51:46.428Z,2.53
2018-07-07T07:54:13.466Z,3.00
2018-07-07T07:56:40.516Z,3.42
2018-07-07T07:59:07.570Z,2.50
2018-07-07T08:01:34.610Z,2.62
2018-07-07T08:04:01.761Z,2.92
2018-07-07T08:06:28.859Z,2.65
2018-07-07T08:08:55.961Z,3.03
2018-07-07T08:11:23.015Z,5.55
2018-07-07T08:13:50.058Z,5.18
2018-07-07T08:16:17.106Z,2.17
2018-07-07T08:18:44.164Z,2.62
2018-07-07T08:21:11.204Z,2.55
2018-07-07T08:23:38.253Z,2.00
2018-07-07T08:26:05.305Z,2.30
2018-07-07T08:28:32.418Z,4.62
2018-07-07T08:30:59.398Z,2.10
2018-07-07T08:33:26.451Z,2.05
2018-07-07T08:35:53.495Z,2.30
2018-07-07T08:38:20.544Z,2.30
2018-07-07T08:40:48.770Z,1.92
2018-07-07T08:43:15.767Z,2.00
2018-07-07T08:45:43.021Z,2.30
2018-07-07T08:48:10.021Z,1.65
2018-07-07T08:50:37.016Z,3.28
2018-07-07T08:53:04.067Z,3.30
2018-07-07T08:55:31.429Z,3.50
2018-07-07T08:57:58.469Z,2.00
2018-07-07T09:00:25.516Z,2.12
2018-07-07T09:02:52.881Z,1.77
2018-07-07T09:05:19.922Z,1.83
2018-07-07T09:07:47.077Z,2.03
2018-07-07T09:10:14.226Z,1.83
2018-07-07T09:12:41.273Z,1.85
2018-07-07T09:15:08.219Z,1.90
2018-07-07T09:17:35.574Z,4.12
2018-07-07T09:20:02.827Z,3.90
2018-07-07T09:22:29.876Z,2.53
2018-07-07T09:24:56.929Z,2.10
2018-07-07T09:27:23.974Z,2.65
2018-07-07T09:29:51.846Z,1.77
2018-07-07T09:32:18.889Z,2.75
2018-07-07T09:34:45.939Z,3.83
2018-07-07T09:37:12.885Z,2.20
2018-07-07T09:39:39.934Z,2.10
2018-07-07T09:42:07.085Z,1.87
2018-07-07T09:44:34.142Z,3.65
2018-07-07T09:47:01.182Z,2.53
2018-07-07T09:49:28.231Z,2.15
2018-07-07T09:51:55.284Z,2.17
2018-07-07T09:54:22.327Z,2.22
2018-07-07T09:56:49.284Z,2.28
2018-07-07T09:59:16.321Z,2.22
2018-07-07T10:01:43.272Z,2.08
2018-07-07T10:04:10.425Z,2.30
2018-07-07T10:06:37.621Z,2.12
2018-07-07T10:09:04.618Z,2.58
2018-07-07T10:11:31.669Z,1.90
2018-07-07T10:13:58.720Z,1.92
2018-07-07T10:16:25.763Z,2.42
2018-07-07T10:18:52.714Z,2.12
2018-07-07T10:21:19.758Z,2.50
2018-07-07T10:23:46.807Z,1.92
2018-07-07T10:26:13.882Z,2.20
2018-07-07T10:28:40.903Z,2.20
2018-07-07T10:31:24.774Z,3.97
2018-07-07T10:33:58.992Z,1.90
2018-07-07T10:36:26.319Z,2.35
2018-07-07T10:38:54.339Z,1.90
2018-07-07T10:41:22.814Z,2.17
2018-07-07T10:43:52.078Z,2.17
2018-07-07T10:46:19.740Z,1.80
2018-07-07T10:48:47.827Z,1.60
2018-07-07T10:51:15.067Z,1.60
2018-07-07T10:53:42.218Z,3.28
2018-07-07T10:56:09.261Z,1.80
2018-07-07T10:58:36.317Z,1.77
2018-07-07T11:01:03.565Z,2.78
2018-07-07T11:03:31.450Z,1.80
2018-07-07T11:05:58.484Z,1.80
2018-07-07T11:08:25.677Z,2.25
2018-07-07T11:10:52.686Z,1.85
2018-07-07T11:13:19.727Z,1.70
2018-07-07T11:15:46.776Z,2.00
2018-07-07T11:18:13.830Z,1.90
2018-07-07T11:20:40.980Z,1.50
2018-07-07T11:23:08.024Z,1.70
2018-07-07T11:25:35.073Z,1.75
2018-07-07T11:28:02.126Z,2.58
2018-07-07T11:30:29.171Z,1.80
2018-07-07T11:32:56.219Z,1.87
2018-07-07T11:35:23.368Z,1.40
2018-07-07T11:37:50.520Z,2.05
2018-07-07T11:40:17.573Z,1.85
2018-07-07T11:42:44.617Z,2.12
2018-07-07T11:45:11.877Z,1.92
2018-07-07T11:47:38.818Z,1.85
2018-07-07T11:50:05.988Z,1.90
2018-07-07T11:52:33.021Z,2.12
2018-07-07T11:55:00.016Z,1.90
2018-07-07T11:57:27.015Z,2.00
2018-07-07T11:59:54.003Z,1.80
2018-07-07T12:02:21.109Z,1.73
2018-07-07T12:04:48.190Z,2.65
2018-07-07T12:07:15.463Z,2.95
2018-07-07T12:09:42.462Z,2.00
2018-07-07T12:12:09.657Z,2.10
2018-07-07T12:14:36.658Z,2.00
2018-07-07T12:17:03.748Z,1.75
2018-07-07T12:19:30.907Z,8.15
2018-07-07T12:21:58.113Z,2.20
2018-07-07T12:24:25.157Z,1.90
2018-07-07T12:26:53.133Z,1.92
2018-07-07T12:29:20.176Z,2.03
2018-07-07T12:31:47.532Z,2.17
2018-07-07T12:34:15.445Z,2.30
2018-07-07T12:36:42.723Z,2.90
2018-07-07T12:39:09.702Z,1.90
2018-07-07T12:41:36.852Z,2.10
2018-07-07T12:44:03.902Z,2.20
2018-07-07T12:46:30.955Z,2.20
2018-07-07T12:48:58.511Z,2.33
2018-07-07T12:51:25.454Z,2.65
2018-07-07T12:53:52.410Z,2.70
2018-07-07T12:59:18.448Z,2.50
2018-07-07T13:01:45.434Z,2.40
2018-07-07T13:04:12.591Z,2.53
2018-07-07T13:06:40.003Z,2.87
2018-07-07T13:09:08.183Z,2.72
2018-07-07T13:11:35.477Z,3.12
2018-07-07T13:14:02.581Z,3.05
2018-07-07T13:16:29.494Z,2.70
2018-07-07T13:18:56.576Z,2.47
2018-07-07T13:21:23.631Z,2.60
2018-07-07T13:23:50.674Z,2.83
2018-07-07T13:26:17.774Z,3.00
2018-07-07T13:28:44.776Z,3.15
2018-07-07T13:31:12.945Z,3.10
2018-07-07T13:33:40.008Z,3.15
2018-07-07T13:36:07.047Z,3.28
2018-07-07T13:38:34.345Z,2.80
2018-07-07T13:41:01.453Z,2.78
2018-07-07T13:43:28.497Z,3.28
2018-07-07T13:45:55.648Z,3.30
2018-07-07T13:48:22.698Z,3.17
2018-07-07T13:50:49.749Z,3.40
2018-07-07T13:53:16.791Z,3.35
2018-07-07T13:55:43.840Z,2.92
2018-07-07T13:58:10.831Z,2.85
2018-07-07T14:00:37.833Z,5.05
2018-07-07T14:03:04.889Z,3.22
2018-07-07T14:05:31.929Z,3.00
2018-07-07T14:07:58.978Z,2.90
2018-07-07T14:10:26.033Z,2.62
2018-07-07T14:12:53.491Z,2.80
2018-07-07T14:15:20.535Z,3.37
2018-07-07T14:17:47.583Z,3.05
2018-07-07T14:20:16.268Z,2.75
2018-07-07T14:22:43.322Z,2.80
2018-07-07T14:25:10.384Z,3.30
2018-07-07T14:27:38.440Z,2.80
2018-07-07T14:30:05.489Z,3.05
2018-07-07T14:32:32.541Z,3.00
2018-07-07T14:34:59.892Z,2.95
2018-07-07T14:37:27.457Z,2.33
2018-07-07T14:39:54.503Z,2.50
2018-07-07T14:42:21.652Z,2.65
2018-07-07T14:44:48.700Z,2.47
2018-07-07T14:47:15.755Z,2.45
2018-07-07T14:49:43.106Z,2.70
2018-07-07T14:52:10.869Z,2.33
2018-07-07T14:54:41.707Z,2.40
2018-07-07T14:57:08.755Z,2.80
2018-07-07T14:59:35.809Z,2.50
2018-07-07T15:02:02.798Z,3.30
2018-07-07T15:04:29.803Z,2.90
2018-07-07T15:06:58.734Z,2.20
2018-07-07T15:09:25.742Z,2.45
2018-07-07T15:11:52.889Z,2.50
2018-07-07T15:14:19.943Z,2.50
2018-07-07T15:16:47.029Z,2.12
2018-07-07T15:19:14.034Z,2.20
2018-07-07T15:21:41.186Z,2.12
2018-07-07T15:24:08.239Z,2.60
2018-07-07T15:26:35.282Z,2.22
2018-07-07T15:29:02.332Z,2.50
2018-07-07T15:31:29.220Z,7.12
2018-07-07T15:33:56.327Z,2.40
2018-07-07T15:36:23.213Z,2.30
2018-07-07T15:38:50.264Z,3.05
2018-07-07T15:41:17.266Z,3.25
2018-07-07T15:43:44.314Z,3.33
2018-07-07T15:46:11.368Z,2.60
2018-07-07T15:48:38.410Z,2.30
2018-07-07T15:51:05.460Z,2.30
2018-07-07T15:53:32.610Z,2.40
2018-07-07T15:55:59.664Z,2.12
2018-07-07T15:58:26.707Z,2.87
2018-07-07T16:00:53.755Z,2.17
2018-07-07T16:03:20.703Z,2.53
2018-07-07T16:05:47.751Z,6.18
2018-07-07T16:08:14.696Z,2.10
2018-07-07T16:10:41.693Z,2.22
2018-07-07T16:13:08.691Z,2.28
2018-07-07T16:15:35.740Z,2.30
2018-07-07T16:18:03.100Z,2.10
2018-07-07T16:20:30.145Z,4.82
2018-07-07T16:22:57.499Z,1.98
2018-07-07T16:25:24.552Z,2.08
2018-07-07T16:27:52.825Z,2.28
2018-07-07T16:30:19.875Z,2.10
2018-07-07T16:32:46.932Z,3.15
2018-07-07T16:35:14.080Z,2.08
2018-07-07T16:37:41.123Z,3.58
2018-07-07T16:40:08.228Z,2.50
2018-07-07T16:42:35.226Z,3.35
2018-07-07T16:45:02.275Z,2.95
2018-07-07T16:47:29.267Z,3.58
2018-07-07T16:49:57.392Z,3.53
2018-07-07T16:52:24.449Z,3.30
2018-07-07T16:54:51.592Z,3.62
2018-07-07T16:57:19.557Z,3.12
2018-07-07T16:59:46.553Z,3.60
2018-07-07T17:02:13.550Z,2.60
2018-07-07T17:04:41.118Z,3.97
2018-07-07T17:07:08.671Z,2.65
2018-07-07T17:09:35.727Z,3.45
2018-07-07T17:12:03.739Z,3.45
2018-07-07T17:14:30.740Z,2.95
2018-07-07T17:16:58.505Z,2.50
2018-07-07T17:19:25.558Z,2.50
2018-07-07T17:21:54.461Z,3.87
2018-07-07T17:24:21.629Z,3.08
2018-07-07T17:26:48.748Z,2.97
2018-07-07T17:29:16.339Z,3.97
2018-07-07T17:31:43.354Z,3.60
2018-07-07T17:34:10.404Z,2.75
2018-07-07T17:36:37.657Z,2.87
2018-07-07T17:39:04.810Z,2.55
2018-07-07T17:41:31.961Z,3.28
2018-07-07T17:44:00.032Z,3.33
2018-07-07T17:46:27.081Z,3.40
2018-07-07T17:48:54.133Z,2.90
2018-07-07T17:51:21.902Z,4.35
2018-07-07T17:53:48.944Z,3.10
2018-07-07T17:56:16.013Z,4.12
2018-07-07T17:58:43.045Z,4.50
2018-07-07T18:01:10.089Z,3.80
2018-07-07T18:03:37.136Z,3.53
2018-07-07T18:06:04.595Z,4.78
2018-07-07T18:08:31.543Z,4.47
2018-07-07T18:10:58.592Z,5.40
2018-07-07T18:13:26.156Z,4.87
2018-07-07T18:15:53.301Z,5.37
2018-07-07T18:18:20.452Z,7.37
2018-07-07T18:20:47.449Z,5.97
2018-07-07T18:23:14.448Z,6.40
2018-07-07T18:25:41.496Z,7.45
2018-07-07T18:28:08.553Z,7.00
2018-07-07T18:30:35.593Z,7.00
2018-07-07T18:33:02.641Z,8.38
2018-07-07T18:35:29.695Z,6.50
2018-07-07T18:37:56.833Z,6.87
2018-07-07T18:40:23.785Z,7.32
2018-07-07T18:42:50.843Z,7.15
2018-07-07T18:45:19.051Z,8.43
2018-07-07T18:47:46.063Z,7.30
2018-07-07T18:50:13.106Z,7.37
2018-07-07T18:52:40.210Z,7.80
2018-07-07T18:55:07.209Z,8.25
2018-07-07T18:57:34.253Z,7.65
2018-07-07T19:00:01.205Z,7.68
2018-07-07T19:02:28.356Z,9.63
2018-07-07T19:04:55.505Z,7.82
2018-07-07T19:07:22.551Z,9.07
2018-07-07T19:09:49.722Z,8.60
2018-07-07T19:12:16.750Z,9.32
2018-07-07T19:14:43.803Z,10.55
2018-07-07T19:17:10.954Z,8.10
2018-07-07T19:19:38.013Z,8.20
2018-07-07T19:22:19.894Z,8.93
2018-07-07T19:25:02.824Z,8.07
2018-07-07T19:27:29.765Z,8.50
2018-07-07T19:29:56.915Z,10.70
2018-07-07T19:32:24.475Z,7.45
2018-07-07T19:35:07.501Z,7.28
2018-07-07T19:37:34.651Z,7.55
2018-07-07T19:40:01.705Z,7.28
2018-07-07T19:42:28.746Z,7.35
2018-07-07T19:44:55.736Z,5.82
2018-07-07T19:47:22.739Z,6.15
2018-07-07T19:49:50.097Z,8.07
2018-07-07T19:52:18.048Z,8.02
2018-07-07T19:54:45.112Z,6.30
2018-07-07T19:57:13.800Z,5.82
2018-07-07T19:59:40.847Z,11.18
2018-07-07T20:02:07.903Z,7.32
2018-07-07T20:04:36.072Z,7.32
2018-07-07T20:07:03.124Z,8.50
2018-07-07T20:09:30.169Z,8.95
2018-07-07T20:11:57.217Z,9.90
2018-07-07T20:14:24.270Z,10.02
2018-07-07T20:16:51.314Z,10.93
2018-07-07T20:19:18.366Z,10.68
2018-07-07T20:21:48.585Z,10.57
2018-07-07T20:24:15.643Z,9.38
2018-07-07T20:26:42.792Z,8.43
2018-07-07T20:29:11.105Z,8.85
2018-07-07T20:31:38.157Z,9.82
2018-07-07T20:34:05.263Z,9.40
2018-07-07T20:36:32.364Z,10.10
2018-07-07T20:38:59.400Z,9.95
2018-07-07T20:41:26.511Z,9.75
2018-07-07T20:43:53.560Z,9.13
2018-07-07T20:46:20.711Z,11.25
2018-07-07T20:48:47.764Z,11.90
2018-07-07T20:51:14.753Z,11.90
2018-07-07T20:53:41.759Z,13.20
2018-07-07T20:56:08.802Z,13.43
2018-07-07T20:58:35.851Z,14.45
2018-07-07T21:01:02.905Z,14.80
2018-07-07T21:03:30.563Z,15.57
2018-07-07T21:05:57.610Z,15.50
2018-07-07T21:08:24.666Z,15.05
2018-07-07T21:10:51.709Z,14.90
2018-07-07T21:13:18.759Z,14.85
2018-07-07T21:15:45.811Z,16.45
2018-07-07T21:18:14.498Z,15.98
2018-07-07T21:20:42.361Z,15.18
2018-07-07T21:23:10.130Z,15.35
2018-07-07T21:25:37.277Z,16.10
2018-07-07T21:28:04.478Z,16.45
2018-07-07T21:30:31.887Z,16.45
2018-07-07T21:32:58.940Z,16.23
2018-07-07T21:35:25.930Z,15.90
2018-07-07T21:37:53.646Z,15.23
2018-07-07T21:40:20.702Z,14.13
2018-07-07T21:42:47.744Z,13.60
2018-07-07T21:45:15.004Z,15.85
2018-07-07T21:47:42.047Z,14.98
2018-07-07T21:50:09.095Z,17.75
2018-07-07T21:52:36.553Z,13.25
2018-07-07T21:55:03.606Z,10.13
2018-07-07T21:57:30.650Z,9.15
2018-07-07T21:59:57.699Z,7.80
2018-07-07T22:02:24.754Z,6.62
2018-07-07T22:05:10.740Z,7.97
2018-07-07T22:07:37.725Z,5.75
2018-07-07T22:10:04.847Z,6.22
2018-07-07T22:12:31.789Z,6.28
2018-07-07T22:14:58.834Z,4.60
2018-07-07T22:17:25.882Z,6.80
2018-07-07T22:19:52.936Z,5.12
2018-07-07T22:22:19.985Z,5.25
2018-07-07T22:24:47.031Z,6.00
2018-07-07T22:27:14.087Z,6.43
2018-07-07T22:29:41.127Z,6.12
2018-07-07T22:32:08.485Z,5.68
2018-07-07T22:34:35.942Z,6.03
2018-07-07T22:37:02.994Z,6.25
2018-07-07T22:39:30.037Z,5.50
2018-07-07T22:41:57.186Z,6.10
2018-07-07T22:44:24.233Z,5.43
2018-07-07T22:46:51.288Z,5.78
2018-07-07T22:49:18.332Z,5.35
2018-07-07T22:51:47.311Z,5.35
2018-07-07T22:54:14.276Z,4.70
2018-07-07T22:56:41.321Z,4.85
2018-07-07T22:59:08.370Z,8.98
2018-07-07T23:01:36.039Z,5.62
2018-07-07T23:04:03.083Z,4.72
2018-07-07T23:06:30.132Z,5.00
2018-07-07T23:08:57.588Z,5.10
2018-07-07T23:11:24.534Z,6.32
2018-07-07T23:13:51.583Z,4.75
2018-07-07T23:16:19.041Z,4.10
2018-07-07T23:18:46.708Z,4.50
2018-07-07T23:21:13.753Z,4.95
2018-07-07T23:23:40.741Z,4.87
2018-07-07T23:26:07.748Z,5.25
2018-07-07T23:28:34.797Z,7.37
2018-07-07T23:31:01.854Z,9.80
2018-07-07T23:33:29.201Z,8.50
2018-07-07T23:35:56.558Z,9.50
2018-07-07T23:38:23.610Z,9.00
2018-07-07T23:40:50.600Z,8.38
2018-07-07T23:43:17.605Z,7.53
2018-07-07T23:45:44.649Z,7.72
2018-07-07T23:48:11.697Z,6.10
2018-07-07T23:50:38.583Z,2.95
2018-07-07T23:53:05.595Z,3.40
2018-07-07T23:55:32.637Z,3.15
2018-07-07T23:57:59.687Z,2.97
